createdAt,value
2023-04-16T00:00:20.092Z,11.13
2023-04-16T00:02:46.841Z,14.27
2023-04-16T00:05:14.908Z,13.80
2023-04-16T00:07:42.110Z,14.40
2023-04-16T00:10:08.894Z,13.30
2023-04-16T00:12:36.627Z,15.38
2023-04-16T00:15:03.344Z,13.68
2023-04-16T00:19:56.574Z,12.50
2023-04-16T00:24:49.569Z,12.50
2023-04-16T00:27:16.204Z,12.75
2023-04-16T00:32:09.293Z,13.32
2023-04-16T00:34:36.078Z,14.70
2023-04-16T00:39:29.175Z,13.57
2023-04-16T00:41:55.990Z,13.30
2023-04-16T00:46:49.016Z,12.65
2023-04-16T00:49:15.713Z,13.43
2023-04-16T00:54:08.748Z,12.93
2023-04-16T00:56:36.515Z,13.02
2023-04-16T00:59:03.109Z,14.48
2023-04-16T01:01:29.822Z,14.02
2023-04-16T01:06:23.680Z,11.48
2023-04-16T01:08:50.264Z,14.38
2023-04-16T01:11:16.937Z,14.30
2023-04-16T01:16:12.108Z,12.80
2023-04-16T01:18:39.242Z,13.65
2023-04-16T01:21:06.195Z,13.52
2023-04-16T01:23:32.796Z,13.40
2023-04-16T01:25:59.432Z,14.52
2023-04-16T01:28:26.245Z,13.95
2023-04-16T01:30:52.922Z,13.25
2023-04-16T01:35:46.173Z,12.40
2023-04-16T01:38:12.880Z,14.38
2023-04-16T01:43:05.906Z,12.70
2023-04-16T01:45:34.221Z,14.00
2023-04-16T01:48:01.078Z,14.40
2023-04-16T01:50:27.755Z,14.80
2023-04-16T01:55:20.922Z,12.90
2023-04-16T02:00:14.123Z,13.10
2023-04-16T02:05:07.675Z,12.68
2023-04-16T02:10:00.801Z,12.63
2023-04-16T02:12:27.527Z,14.05
2023-04-16T02:17:20.650Z,13.48
2023-04-16T02:19:47.530Z,15.05
2023-04-16T02:22:14.160Z,15.18
2023-04-16T02:27:07.392Z,13.82
2023-04-16T02:29:34.068Z,15.80
2023-04-16T02:32:00.770Z,16.67
2023-04-16T02:36:55.189Z,14.32
2023-04-16T02:39:22.261Z,16.05
2023-04-16T02:41:48.812Z,16.02
2023-04-16T02:44:15.817Z,16.55
2023-04-16T02:46:42.348Z,15.48
2023-04-16T02:49:09.011Z,15.27
2023-04-16T02:54:03.212Z,13.25
2023-04-16T02:56:29.824Z,18.35
2023-04-16T02:58:56.547Z,16.98
2023-04-16T03:03:49.766Z,14.63
2023-04-16T03:06:16.344Z,16.13
2023-04-16T03:08:42.905Z,17.10
2023-04-16T03:11:09.440Z,15.10
2023-04-16T03:13:36.425Z,15.80
2023-04-16T03:16:03.165Z,14.82
2023-04-16T03:20:56.403Z,14.18
2023-04-16T03:23:22.946Z,15.07
2023-04-16T03:25:49.512Z,16.33
2023-04-16T03:28:16.336Z,16.50
2023-04-16T03:30:42.967Z,16.13
2023-04-16T03:33:09.515Z,14.18
2023-04-16T03:35:36.072Z,15.98
2023-04-16T03:38:02.648Z,16.42
2023-04-16T03:40:29.196Z,17.65
2023-04-16T03:42:55.860Z,17.98
2023-04-16T03:45:22.385Z,17.30
2023-04-16T03:47:52.767Z,16.95
2023-04-16T03:50:19.907Z,18.35
2023-04-16T03:52:47.218Z,17.85
2023-04-16T03:55:14.129Z,18.58
2023-04-16T03:57:41.588Z,18.65
2023-04-16T04:00:08.925Z,17.30
2023-04-16T04:02:35.595Z,16.77
2023-04-16T04:05:02.491Z,18.38
2023-04-16T04:07:29.430Z,18.17
2023-04-16T04:12:22.451Z,16.52
2023-04-16T04:14:48.990Z,16.40
2023-04-16T04:17:15.669Z,16.73
2023-04-16T04:22:13.919Z,14.70
2023-04-16T04:24:40.500Z,15.55
2023-04-16T04:27:07.039Z,16.02
2023-04-16T04:29:33.594Z,15.93
2023-04-16T04:32:00.250Z,15.75
2023-04-16T04:36:53.391Z,14.38
2023-04-16T04:39:21.767Z,14.82
2023-04-16T04:41:48.461Z,16.90
2023-04-16T04:46:41.706Z,13.52
2023-04-16T04:51:35.324Z,13.43
2023-04-16T04:54:01.929Z,15.82
2023-04-16T04:56:28.470Z,15.35
2023-04-16T04:58:55.037Z,15.73
2023-04-16T05:01:21.647Z,14.93
2023-04-16T05:03:48.374Z,15.63
2023-04-16T05:08:41.552Z,14.77
2023-04-16T05:11:08.104Z,16.65
2023-04-16T05:13:34.628Z,17.33
2023-04-16T05:16:01.221Z,16.98
2023-04-16T05:18:27.913Z,17.80
2023-04-16T05:23:20.926Z,14.82
2023-04-16T05:25:47.443Z,15.23
2023-04-16T05:28:13.977Z,16.25
2023-04-16T05:30:40.838Z,16.50
2023-04-16T05:33:07.445Z,15.40
2023-04-16T05:35:35.191Z,16.75
2023-04-16T05:38:01.731Z,16.60
2023-04-16T05:40:28.291Z,17.02
2023-04-16T05:42:54.838Z,15.73
2023-04-16T05:45:21.563Z,15.32
2023-04-16T05:50:14.924Z,15.45
2023-04-16T05:55:08.323Z,13.45
2023-04-16T05:57:34.882Z,13.90
2023-04-16T06:00:01.457Z,12.95
2023-04-16T06:02:28.236Z,15.20
2023-04-16T06:04:54.850Z,14.32
2023-04-16T06:07:21.686Z,15.80
2023-04-16T06:12:14.774Z,13.68
2023-04-16T06:14:41.307Z,14.40
2023-04-16T06:17:07.862Z,14.13
2023-04-16T06:19:34.408Z,13.02
2023-04-16T06:22:01.100Z,13.88
2023-04-16T06:26:54.779Z,11.38
2023-04-16T06:29:22.529Z,13.93
2023-04-16T06:31:52.462Z,12.77
2023-04-16T06:36:45.829Z,12.68
2023-04-16T06:39:12.389Z,12.82
2023-04-16T06:41:38.971Z,15.55
2023-04-16T06:44:05.882Z,14.48
2023-04-16T06:46:32.594Z,14.57
2023-04-16T06:51:26.837Z,13.05
2023-04-16T06:53:53.391Z,14.18
2023-04-16T06:56:19.967Z,13.63
2023-04-16T06:58:46.640Z,15.05
2023-04-16T07:01:13.506Z,14.18
2023-04-16T07:03:40.342Z,15.68
2023-04-16T07:06:07.118Z,16.50
2023-04-16T07:11:00.444Z,14.10
2023-04-16T07:13:27.843Z,15.38
2023-04-16T07:15:54.591Z,18.15
2023-04-16T07:20:48.472Z,15.93
2023-04-16T07:25:42.507Z,14.23
2023-04-16T07:28:09.081Z,15.45
2023-04-16T07:30:36.605Z,16.67
2023-04-16T07:33:06.068Z,17.13
2023-04-16T07:35:32.766Z,17.88
2023-04-16T07:40:26.420Z,14.82
2023-04-16T07:42:53.161Z,16.25
2023-04-16T07:47:46.365Z,12.10
2023-04-16T07:52:41.581Z,13.80
2023-04-16T07:55:09.219Z,14.50
2023-04-16T07:57:35.901Z,16.13
2023-04-16T08:02:32.225Z,13.88
2023-04-16T08:04:59.658Z,14.60
2023-04-16T08:07:26.270Z,15.60
2023-04-16T08:09:53.265Z,15.45
2023-04-16T08:12:21.043Z,14.45
2023-04-16T08:14:48.245Z,14.63
2023-04-16T08:17:15.500Z,13.98
2023-04-16T08:19:43.231Z,14.23
2023-04-16T08:22:09.833Z,14.90
2023-04-16T08:27:15.413Z,13.77
2023-04-16T08:29:45.630Z,14.07
2023-04-16T08:32:12.769Z,13.43
2023-04-16T08:34:39.448Z,13.30
2023-04-16T08:39:32.683Z,12.30
2023-04-16T08:44:28.002Z,12.70
2023-04-16T08:46:59.284Z,12.15
2023-04-16T08:49:26.896Z,12.80
2023-04-16T08:51:56.065Z,12.75
2023-04-16T08:54:38.993Z,12.13
2023-04-16T08:57:07.254Z,11.77
2023-04-16T08:59:34.520Z,11.25
2023-04-16T09:02:02.225Z,11.55
2023-04-16T09:04:29.643Z,12.35
2023-04-16T09:06:59.634Z,11.30
2023-04-16T09:09:29.581Z,12.35
2023-04-16T09:11:56.389Z,12.65
2023-04-16T09:14:22.931Z,11.90
2023-04-16T09:16:53.385Z,11.55
2023-04-16T09:19:20.031Z,12.43
2023-04-16T09:24:14.008Z,11.52
2023-04-16T09:26:43.581Z,12.57
2023-04-16T09:29:10.652Z,11.73
2023-04-16T09:31:37.750Z,10.95
2023-04-16T09:34:09.263Z,12.55
2023-04-16T09:36:36.946Z,10.98
2023-04-16T09:39:04.048Z,11.52
2023-04-16T09:41:32.537Z,12.25
2023-04-16T09:44:00.044Z,12.73
2023-04-16T09:46:36.392Z,12.18
2023-04-16T09:49:12.946Z,12.60
2023-04-16T09:51:43.695Z,12.18
2023-04-16T09:54:10.612Z,10.73
2023-04-16T09:56:46.024Z,10.95
2023-04-16T09:59:19.684Z,11.70
2023-04-16T10:02:14.392Z,11.30
2023-04-16T10:04:51.913Z,10.73
2023-04-16T10:07:19.426Z,12.23
2023-04-16T10:09:48.636Z,10.90
2023-04-16T10:12:16.194Z,12.52
2023-04-16T10:14:43.198Z,11.30
2023-04-16T10:17:10.208Z,10.15
2023-04-16T10:19:37.436Z,11.02
2023-04-16T10:22:04.413Z,10.85
2023-04-16T10:24:32.545Z,11.35
2023-04-16T10:27:00.165Z,10.98
2023-04-16T10:29:31.675Z,9.98
2023-04-16T10:31:58.989Z,11.52
2023-04-16T10:34:26.690Z,12.50
2023-04-16T10:36:54.586Z,11.45
2023-04-16T10:39:23.578Z,11.77
2023-04-16T10:41:51.112Z,12.38
2023-04-16T10:44:19.445Z,11.02
2023-04-16T10:46:52.028Z,11.07
2023-04-16T10:49:23.291Z,11.82
2023-04-16T10:52:00.718Z,11.80
2023-04-16T10:54:29.035Z,11.82
2023-04-16T10:57:07.321Z,12.15
2023-04-16T10:59:36.595Z,12.80
2023-04-16T11:02:14.114Z,14.07
2023-04-16T11:04:44.445Z,11.45
2023-04-16T11:07:14.151Z,11.35
2023-04-16T11:10:00.706Z,12.85
2023-04-16T11:12:34.243Z,12.05
2023-04-16T11:15:06.491Z,11.23
2023-04-16T11:17:38.125Z,12.60
2023-04-16T11:20:18.105Z,12.13
2023-04-16T11:22:47.772Z,12.63
2023-04-16T11:25:20.641Z,11.63
2023-04-16T11:27:47.210Z,11.88
2023-04-16T11:30:14.155Z,10.77
2023-04-16T11:32:40.982Z,11.05
2023-04-16T11:35:16.395Z,11.02
2023-04-16T11:37:43.233Z,12.90
2023-04-16T11:40:10.614Z,10.75
2023-04-16T11:42:40.650Z,11.60
2023-04-16T11:45:09.712Z,11.13
2023-04-16T11:47:50.406Z,10.75
2023-04-16T11:50:22.448Z,10.23
2023-04-16T11:52:50.711Z,10.32
2023-04-16T11:55:17.749Z,8.43
2023-04-16T11:57:45.553Z,8.93
2023-04-16T12:00:14.235Z,7.40
2023-04-16T12:02:59.923Z,7.35
2023-04-16T12:05:28.779Z,7.22
2023-04-16T12:07:55.533Z,6.97
2023-04-16T12:10:22.473Z,8.65
2023-04-16T12:12:49.070Z,7.63
2023-04-16T12:15:15.894Z,7.63
2023-04-16T12:17:42.567Z,7.85
2023-04-16T12:22:43.937Z,7.25
2023-04-16T12:25:17.251Z,8.13
2023-04-16T12:27:53.968Z,8.45
2023-04-16T12:30:23.311Z,8.95
2023-04-16T12:32:52.542Z,10.50
2023-04-16T12:35:32.912Z,8.93
2023-04-16T12:38:01.060Z,8.70
2023-04-16T12:40:27.936Z,8.90
2023-04-16T12:42:55.037Z,9.65
2023-04-16T12:45:22.278Z,9.65
2023-04-16T12:47:50.572Z,11.02
2023-04-16T12:50:17.584Z,8.65
2023-04-16T12:52:44.283Z,8.68
2023-04-16T12:55:11.797Z,9.07
2023-04-16T12:57:38.387Z,10.95
2023-04-16T13:00:06.857Z,10.13
2023-04-16T13:02:34.271Z,10.15
2023-04-16T13:05:01.746Z,10.48
2023-04-16T13:07:29.199Z,10.20
2023-04-16T13:09:55.850Z,11.30
2023-04-16T13:14:49.135Z,9.25
2023-04-16T13:19:42.252Z,9.93
2023-04-16T13:22:09.404Z,12.25
2023-04-16T13:24:36.093Z,11.50
2023-04-16T13:29:30.164Z,11.93
2023-04-16T13:31:57.617Z,13.38
2023-04-16T13:34:24.351Z,14.93
2023-04-16T13:36:51.058Z,15.40
2023-04-16T13:41:44.431Z,12.05
2023-04-16T13:46:38.066Z,14.20
2023-04-16T13:49:04.747Z,15.20
2023-04-16T13:53:59.030Z,15.07
2023-04-16T13:58:52.524Z,13.95
2023-04-16T14:01:19.676Z,16.08
2023-04-16T14:03:46.500Z,15.50
2023-04-16T14:06:13.942Z,15.43
2023-04-16T14:08:40.722Z,14.90
2023-04-16T14:11:07.796Z,16.83
2023-04-16T14:13:34.557Z,15.38
2023-04-16T14:18:27.978Z,14.63
2023-04-16T14:23:21.444Z,12.63
2023-04-16T14:25:48.675Z,16.90
2023-04-16T14:28:16.033Z,17.58
2023-04-16T14:30:42.685Z,16.05
2023-04-16T14:35:36.228Z,15.30
2023-04-16T14:38:02.995Z,17.58
2023-04-16T14:40:29.642Z,19.83
2023-04-16T14:45:26.504Z,15.70
2023-04-16T14:47:54.137Z,17.02
2023-04-16T14:50:20.883Z,18.75
2023-04-16T14:52:47.660Z,22.88
2023-04-16T14:55:14.409Z,28.85
2023-04-16T14:57:41.784Z,28.90
2023-04-16T15:00:10.652Z,20.60
2023-04-16T15:02:37.921Z,20.45
2023-04-16T15:05:04.986Z,18.58
2023-04-16T15:07:31.790Z,18.83
2023-04-16T15:09:58.433Z,17.75
2023-04-16T15:14:51.780Z,15.63
2023-04-16T15:19:45.161Z,14.27
2023-04-16T15:24:38.717Z,12.98
2023-04-16T15:27:08.429Z,15.52
2023-04-16T15:29:36.411Z,14.70
2023-04-16T15:32:03.037Z,15.75
2023-04-16T15:36:57.432Z,14.30
2023-04-16T15:39:24.046Z,14.98
2023-04-16T15:44:28.360Z,14.55
2023-04-16T15:46:55.183Z,16.17
2023-04-16T15:49:21.909Z,15.70
2023-04-16T15:51:48.794Z,13.50
2023-04-16T15:54:15.643Z,16.25
2023-04-16T15:56:42.328Z,14.40
2023-04-16T16:01:36.482Z,14.32
2023-04-16T16:06:30.213Z,13.50
2023-04-16T16:11:23.592Z,12.80
2023-04-16T16:13:50.254Z,15.27
2023-04-16T16:18:43.598Z,14.75
2023-04-16T16:23:37.189Z,13.88
2023-04-16T16:26:06.301Z,13.60
2023-04-16T16:28:32.961Z,13.45
2023-04-16T16:33:28.921Z,12.27
2023-04-16T16:35:55.612Z,14.38
2023-04-16T16:40:48.744Z,12.45
2023-04-16T16:45:42.079Z,11.38
2023-04-16T16:50:35.771Z,11.80
2023-04-16T16:53:02.959Z,12.40
2023-04-16T16:55:29.573Z,11.13
2023-04-16T17:00:23.138Z,10.15
2023-04-16T17:02:51.464Z,12.27
2023-04-16T17:05:18.393Z,12.23
2023-04-16T17:07:45.007Z,11.93
2023-04-16T17:12:39.984Z,10.98
2023-04-16T17:17:33.465Z,10.50
2023-04-16T17:20:01.193Z,11.55
2023-04-16T17:22:27.846Z,13.15
2023-04-16T17:27:21.226Z,9.15
2023-04-16T17:32:14.698Z,8.68
2023-04-16T17:34:41.365Z,11.20
2023-04-16T17:39:34.596Z,11.93
2023-04-16T17:44:29.868Z,9.35
2023-04-16T17:49:23.966Z,12.00
2023-04-16T17:51:50.545Z,9.77
2023-04-16T17:56:43.735Z,8.68
2023-04-16T18:01:36.988Z,7.90
2023-04-16T18:04:03.798Z,9.05
2023-04-16T18:06:31.159Z,8.20
2023-04-16T18:08:57.875Z,7.97
2023-04-16T18:11:30.683Z,7.50
2023-04-16T18:13:57.879Z,7.40
2023-04-16T18:18:51.114Z,7.55
2023-04-16T18:23:44.304Z,6.50
2023-04-16T18:31:06.873Z,6.13
2023-04-16T18:33:54.126Z,6.15
2023-04-16T18:36:21.292Z,6.68
2023-04-16T18:39:00.065Z,7.80
2023-04-16T18:41:28.729Z,6.50
2023-04-16T18:43:55.487Z,7.10
2023-04-16T18:46:22.182Z,6.80
2023-04-16T18:51:16.594Z,7.10
2023-04-16T18:53:45.775Z,6.85
2023-04-16T18:56:12.868Z,6.82
2023-04-16T18:58:39.576Z,6.45
2023-04-16T19:03:38.468Z,6.18
2023-04-16T19:06:06.146Z,6.60
2023-04-16T19:08:32.854Z,7.53
2023-04-16T19:13:26.191Z,7.40
2023-04-16T19:18:24.054Z,8.30
2023-04-16T19:23:17.506Z,9.00
2023-04-16T19:28:10.623Z,6.50
2023-04-16T19:30:37.222Z,6.75
2023-04-16T19:33:03.828Z,8.30
2023-04-16T19:37:56.916Z,7.57
